createdAt,value
2022-08-23T00:00:12.869Z,21.43
2022-08-23T00:01:05.805Z,21.42
2022-08-23T00:02:05.764Z,21.42
2022-08-23T00:03:05.823Z,21.43
2022-08-23T00:04:05.783Z,21.47
2022-08-23T00:05:09.457Z,21.38
2022-08-23T00:06:05.795Z,21.43
2022-08-23T00:07:05.813Z,21.37
2022-08-23T00:08:05.803Z,21.35
2022-08-23T00:09:05.793Z,21.34
2022-08-23T00:10:05.807Z,21.37
2022-08-23T00:11:05.831Z,21.42
2022-08-23T00:12:05.822Z,21.38
2022-08-23T00:13:05.808Z,21.38
2022-08-23T00:14:05.820Z,21.42
2022-08-23T00:15:05.826Z,21.43
2022-08-23T00:16:05.848Z,21.37
2022-08-23T00:17:05.846Z,21.38
2022-08-23T00:18:05.840Z,21.42
2022-08-23T00:19:05.843Z,21.38
2022-08-23T00:20:05.838Z,21.29
2022-08-23T00:21:05.855Z,21.31
2022-08-23T00:22:05.871Z,21.34
2022-08-23T00:23:05.878Z,21.44
2022-08-23T00:24:05.853Z,21.37
2022-08-23T00:25:05.862Z,21.42
2022-08-23T00:26:05.879Z,21.32
2022-08-23T00:27:05.872Z,21.31
2022-08-23T00:28:05.886Z,21.34
2022-08-23T00:29:05.906Z,21.35
2022-08-23T00:30:05.890Z,21.35
2022-08-23T00:31:05.901Z,21.34
2022-08-23T00:32:05.922Z,21.24
2022-08-23T00:33:05.903Z,21.31
2022-08-23T00:34:05.919Z,21.29
2022-08-23T00:35:05.930Z,21.31
2022-08-23T00:36:05.908Z,21.34
2022-08-23T00:37:05.943Z,21.31
2022-08-23T00:38:32.493Z,21.24
2022-08-23T00:39:05.928Z,21.35
2022-08-23T00:40:05.984Z,21.31
2022-08-23T00:41:05.943Z,21.32
2022-08-23T00:42:05.938Z,21.32
2022-08-23T00:43:06.217Z,21.27
2022-08-23T00:44:05.959Z,21.38
2022-08-23T00:45:05.960Z,21.28
2022-08-23T00:46:05.998Z,21.29
2022-08-23T00:47:05.972Z,21.38
2022-08-23T00:48:05.976Z,21.32
2022-08-23T00:49:05.989Z,21.35
2022-08-23T00:50:19.279Z,21.35
2022-08-23T00:51:05.995Z,21.38
2022-08-23T00:52:06.010Z,21.29
2022-08-23T00:53:05.987Z,21.43
2022-08-23T00:54:06.002Z,21.34
2022-08-23T00:55:06.008Z,21.40
2022-08-23T00:56:05.998Z,21.31
2022-08-23T00:57:06.008Z,21.35
2022-08-23T00:58:06.008Z,21.47
2022-08-23T00:59:06.029Z,21.35
2022-08-23T01:00:06.013Z,21.35
2022-08-23T01:01:06.029Z,21.42
2022-08-23T01:02:06.127Z,21.37
2022-08-23T01:03:06.048Z,21.37
2022-08-23T01:04:06.033Z,21.31
2022-08-23T01:05:06.036Z,21.37
2022-08-23T01:06:06.046Z,21.38
2022-08-23T01:07:06.056Z,21.31
2022-08-23T01:08:06.066Z,21.32
2022-08-23T01:09:06.058Z,21.34
2022-08-23T01:10:06.056Z,21.24
2022-08-23T01:11:08.736Z,21.19
2022-08-23T01:12:06.082Z,21.19
2022-08-23T01:13:06.107Z,21.17
2022-08-23T01:14:06.076Z,21.19
2022-08-23T01:15:06.092Z,21.16
2022-08-23T01:16:06.100Z,21.13
2022-08-23T01:17:06.085Z,21.14
2022-08-23T01:18:06.088Z,21.14
2022-08-23T01:19:06.107Z,21.21
2022-08-23T01:20:06.111Z,21.21
2022-08-23T01:21:06.101Z,21.19
2022-08-23T01:22:06.103Z,21.24
2022-08-23T01:23:06.119Z,21.22
2022-08-23T01:24:06.136Z,21.22
2022-08-23T01:25:08.926Z,21.27
2022-08-23T01:27:52.344Z,21.29
2022-08-23T01:28:37.737Z,21.28
2022-08-23T01:29:37.718Z,21.31
2022-08-23T01:30:37.721Z,21.32
2022-08-23T01:31:37.720Z,21.29
2022-08-23T01:32:37.753Z,21.31
2022-08-23T01:33:37.728Z,21.31
2022-08-23T01:34:37.725Z,21.28
2022-08-23T01:35:37.741Z,21.25
2022-08-23T01:36:37.781Z,21.27
2022-08-23T01:37:37.746Z,21.25
2022-08-23T01:38:37.751Z,21.27
2022-08-23T01:39:37.750Z,21.27
2022-08-23T01:40:37.783Z,21.28
2022-08-23T01:41:37.756Z,21.25
2022-08-23T01:42:37.778Z,21.22
2022-08-23T01:43:37.761Z,21.25
2022-08-23T01:44:37.764Z,21.31
2022-08-23T01:45:37.794Z,21.27
2022-08-23T01:46:37.779Z,21.28
2022-08-23T01:47:37.787Z,21.29
2022-08-23T01:48:37.790Z,21.25
2022-08-23T01:49:37.798Z,21.28
2022-08-23T01:51:37.806Z,21.32
2022-08-23T01:52:37.837Z,21.27
2022-08-23T01:53:37.811Z,21.25
2022-08-23T01:54:37.811Z,21.28
2022-08-23T01:55:37.839Z,21.32
2022-08-23T01:56:38.893Z,21.27
2022-08-23T01:57:37.832Z,21.17
2022-08-23T01:58:37.848Z,21.32
2022-08-23T01:59:37.839Z,21.25
2022-08-23T02:00:37.833Z,21.19
2022-08-23T02:01:37.918Z,21.22
2022-08-23T02:02:37.849Z,21.31
2022-08-23T02:03:37.889Z,21.25
2022-08-23T02:04:37.856Z,21.29
2022-08-23T02:05:37.876Z,21.24
2022-08-23T02:06:37.870Z,21.28
2022-08-23T02:07:37.872Z,21.31
2022-08-23T02:08:37.899Z,21.28
2022-08-23T02:09:37.871Z,21.31
2022-08-23T02:10:37.886Z,21.27
2022-08-23T02:11:37.890Z,21.31
2022-08-23T02:12:37.897Z,21.31
2022-08-23T02:13:37.901Z,21.28
2022-08-23T02:14:37.935Z,21.31
2022-08-23T02:15:37.906Z,21.28
2022-08-23T02:16:37.912Z,21.31
2022-08-23T02:17:37.936Z,21.28
2022-08-23T02:18:37.909Z,21.29
2022-08-23T02:19:37.935Z,21.32
2022-08-23T02:20:37.919Z,21.28
2022-08-23T02:21:37.921Z,21.28
2022-08-23T02:22:37.942Z,21.21
2022-08-23T02:23:37.967Z,21.29
2022-08-23T02:24:37.974Z,21.29
2022-08-23T02:25:46.402Z,21.29
2022-08-23T02:26:37.945Z,21.28
2022-08-23T02:27:37.959Z,21.28
2022-08-23T02:28:37.967Z,21.25
2022-08-23T02:29:39.335Z,21.21
2022-08-23T02:30:37.992Z,21.22
2022-08-23T02:31:37.966Z,21.24
2022-08-23T02:32:37.983Z,21.16
2022-08-23T02:33:37.970Z,21.21
2022-08-23T02:34:38.003Z,21.13
2022-08-23T02:35:37.990Z,21.16
2022-08-23T02:36:37.988Z,21.14
2022-08-23T02:37:37.996Z,21.17
2022-08-23T02:38:38.007Z,21.19
2022-08-23T02:39:38.889Z,21.10
2022-08-23T02:40:38.039Z,21.19
2022-08-23T02:41:38.017Z,21.16
2022-08-23T02:42:38.025Z,21.13
2022-08-23T02:43:40.918Z,21.16
2022-08-23T02:44:38.024Z,21.19
2022-08-23T02:45:38.061Z,21.16
2022-08-23T02:46:38.027Z,21.17
2022-08-23T02:47:38.030Z,21.12
2022-08-23T02:48:38.035Z,21.17
2022-08-23T02:49:38.048Z,21.13
2022-08-23T02:50:38.057Z,21.17
2022-08-23T02:51:38.065Z,21.19
2022-08-23T02:52:38.061Z,21.17
2022-08-23T02:53:38.058Z,21.21
2022-08-23T02:54:38.098Z,21.17
2022-08-23T02:55:38.072Z,21.21
2022-08-23T02:56:38.071Z,21.19
2022-08-23T02:57:38.123Z,21.17
2022-08-23T02:58:38.085Z,21.19
2022-08-23T02:59:38.081Z,21.19
2022-08-23T03:00:38.084Z,21.19
2022-08-23T03:01:38.094Z,21.21
2022-08-23T03:02:38.152Z,21.12
2022-08-23T03:03:38.131Z,21.14
2022-08-23T03:04:38.148Z,21.13
2022-08-23T03:05:38.114Z,21.17
2022-08-23T03:06:38.123Z,21.14
2022-08-23T03:07:38.124Z,21.14
2022-08-23T03:08:38.123Z,21.14
2022-08-23T03:09:38.138Z,21.12
2022-08-23T03:10:38.152Z,21.14
2022-08-23T03:11:38.140Z,21.04
2022-08-23T03:12:38.145Z,21.12
2022-08-23T03:13:38.145Z,21.12
2022-08-23T03:14:38.148Z,20.98
2022-08-23T03:15:38.189Z,21.06
2022-08-23T03:16:46.456Z,21.06
2022-08-23T03:17:46.463Z,21.04
2022-08-23T03:18:46.495Z,21.10
2022-08-23T03:19:46.536Z,21.09
2022-08-23T03:20:38.193Z,21.10
2022-08-23T03:21:46.543Z,21.07
2022-08-23T03:22:48.469Z,21.04
2022-08-23T03:23:46.608Z,21.06
2022-08-23T03:24:45.756Z,21.07
2022-08-23T03:25:47.681Z,21.04
2022-08-23T03:26:46.671Z,21.12
2022-08-23T03:27:46.700Z,21.07
2022-08-23T03:28:45.784Z,21.03
2022-08-23T03:29:46.244Z,20.97
2022-08-23T03:30:46.285Z,20.95
2022-08-23T03:31:46.299Z,21.03
2022-08-23T03:32:49.287Z,21.03
2022-08-23T03:33:46.324Z,20.97
2022-08-23T03:34:46.787Z,21.01
2022-08-23T03:35:47.371Z,20.99
2022-08-23T03:36:45.781Z,20.99
2022-08-23T03:37:46.425Z,20.98
2022-08-23T03:38:38.244Z,21.03
2022-08-23T03:39:38.283Z,21.04
2022-08-23T03:40:38.240Z,20.99
2022-08-23T03:41:38.246Z,20.92
2022-08-23T03:42:38.244Z,20.99
2022-08-23T03:43:38.254Z,20.98
2022-08-23T03:44:38.282Z,20.94
2022-08-23T03:45:38.262Z,20.89
2022-08-23T03:46:38.249Z,20.94
2022-08-23T03:47:38.274Z,20.97
2022-08-23T03:48:38.258Z,20.99
2022-08-23T03:49:38.271Z,20.94
2022-08-23T03:50:38.296Z,20.92
2022-08-23T03:51:38.289Z,20.97
2022-08-23T03:52:38.278Z,20.95
2022-08-23T03:53:38.274Z,20.92
2022-08-23T03:54:38.297Z,20.98
2022-08-23T03:55:42.117Z,20.95
2022-08-23T03:56:38.297Z,20.95
2022-08-23T03:57:38.306Z,20.97
2022-08-23T03:58:38.306Z,20.94
2022-08-23T03:59:38.308Z,20.92
2022-08-23T04:00:38.302Z,20.84
2022-08-23T04:01:38.339Z,20.98
2022-08-23T04:02:38.353Z,20.95
2022-08-23T04:03:38.334Z,20.87
2022-08-23T04:04:38.322Z,20.87
2022-08-23T04:05:38.329Z,20.99
2022-08-23T04:06:38.337Z,20.84
2022-08-23T04:07:38.340Z,20.94
2022-08-23T04:08:38.352Z,20.84
2022-08-23T04:09:38.347Z,20.84
2022-08-23T04:10:38.350Z,20.89
2022-08-23T04:11:38.348Z,20.80
2022-08-23T04:12:38.360Z,20.84
2022-08-23T04:13:38.381Z,20.74
2022-08-23T04:14:38.372Z,20.85
2022-08-23T04:15:38.362Z,20.84
2022-08-23T04:16:38.376Z,20.84
2022-08-23T04:17:38.377Z,20.84
2022-08-23T04:18:38.383Z,20.85
2022-08-23T04:19:38.397Z,20.91
2022-08-23T04:20:38.397Z,20.85
2022-08-23T04:21:38.381Z,20.85
2022-08-23T04:22:38.395Z,20.94
2022-08-23T04:23:38.405Z,20.91
2022-08-23T04:24:38.421Z,20.94
2022-08-23T04:25:38.401Z,20.91
2022-08-23T04:26:38.430Z,20.94
2022-08-23T04:27:38.422Z,20.99
2022-08-23T04:28:38.417Z,21.01
2022-08-23T04:29:38.440Z,21.01
2022-08-23T04:30:38.413Z,20.99
2022-08-23T04:31:38.792Z,20.97
2022-08-23T04:32:38.463Z,21.03
2022-08-23T04:33:40.315Z,20.98
2022-08-23T04:34:38.445Z,20.97
2022-08-23T04:35:38.460Z,21.01
2022-08-23T04:36:38.461Z,20.95
2022-08-23T04:37:38.456Z,20.95
2022-08-23T04:38:38.463Z,20.95
2022-08-23T04:39:38.469Z,20.95
2022-08-23T04:40:38.477Z,20.99
2022-08-23T04:41:38.472Z,21.01
2022-08-23T04:42:38.480Z,20.97
2022-08-23T04:43:38.475Z,21.03
2022-08-23T04:44:38.497Z,20.98
2022-08-23T04:45:38.497Z,20.95
2022-08-23T04:46:38.495Z,21.01
2022-08-23T04:47:38.486Z,20.99
2022-08-23T04:48:38.489Z,20.95
2022-08-23T04:49:38.494Z,20.95
2022-08-23T04:50:38.496Z,21.04
2022-08-23T04:51:38.544Z,20.97
2022-08-23T04:52:38.515Z,20.94
2022-08-23T04:53:38.520Z,21.04
2022-08-23T04:54:38.530Z,20.97
2022-08-23T04:55:38.531Z,21.01
2022-08-23T04:56:38.555Z,21.03
2022-08-23T04:57:38.548Z,20.97
2022-08-23T04:58:38.537Z,21.04
2022-08-23T04:59:38.541Z,20.95
2022-08-23T05:00:38.578Z,20.98
2022-08-23T05:01:38.564Z,20.95
2022-08-23T05:02:38.570Z,21.03
2022-08-23T05:03:38.550Z,21.01
2022-08-23T05:04:38.562Z,20.97
2022-08-23T05:05:38.607Z,20.98
2022-08-23T05:06:38.571Z,20.98
2022-08-23T05:07:42.210Z,20.94
2022-08-23T05:08:38.579Z,20.98
2022-08-23T05:09:38.588Z,20.98
2022-08-23T05:10:38.579Z,21.01
2022-08-23T05:11:38.580Z,21.07
2022-08-23T05:12:38.616Z,21.03
2022-08-23T05:13:38.589Z,20.98
2022-08-23T05:14:38.604Z,20.97
2022-08-23T05:15:38.597Z,21.04
2022-08-23T05:16:38.607Z,21.07
2022-08-23T05:17:38.620Z,21.10
2022-08-23T05:18:38.628Z,21.09
2022-08-23T05:19:44.206Z,21.09
2022-08-23T05:20:38.637Z,21.14
2022-08-23T05:21:38.672Z,21.19
2022-08-23T05:22:38.644Z,21.13
2022-08-23T05:23:38.657Z,21.16
2022-08-23T05:24:38.642Z,21.16
2022-08-23T05:25:38.654Z,21.22
2022-08-23T05:26:38.649Z,21.22
2022-08-23T05:27:38.659Z,21.17
2022-08-23T05:28:38.688Z,21.25
2022-08-23T05:29:38.667Z,21.27
2022-08-23T05:30:38.679Z,21.25
2022-08-23T05:31:38.731Z,21.29
2022-08-23T05:32:38.690Z,21.31
2022-08-23T05:33:38.720Z,21.29
2022-08-23T05:34:38.702Z,21.27
2022-08-23T05:35:38.702Z,21.34
2022-08-23T05:36:38.720Z,21.38
2022-08-23T05:37:38.702Z,21.43
2022-08-23T05:38:38.727Z,21.40
2022-08-23T05:39:38.709Z,21.37
2022-08-23T05:40:38.719Z,21.43
2022-08-23T05:41:38.739Z,21.38
2022-08-23T05:42:38.707Z,21.38
2022-08-23T05:43:38.720Z,21.35
2022-08-23T05:44:38.731Z,21.38
2022-08-23T05:45:38.738Z,21.43
2022-08-23T05:46:38.742Z,21.43
2022-08-23T05:47:38.728Z,21.47
2022-08-23T05:48:38.746Z,21.43
2022-08-23T05:49:38.755Z,21.42
2022-08-23T05:50:38.741Z,21.54
2022-08-23T05:51:38.741Z,21.50
2022-08-23T05:52:38.753Z,21.46
2022-08-23T05:53:38.751Z,21.47
2022-08-23T05:54:38.778Z,21.46
2022-08-23T05:55:38.767Z,21.56
2022-08-23T05:56:38.787Z,21.49
2022-08-23T05:57:38.776Z,21.59
2022-08-23T05:58:38.786Z,21.53
2022-08-23T05:59:38.797Z,21.54
2022-08-23T06:00:40.809Z,21.59
2022-08-23T06:01:38.782Z,21.56
2022-08-23T06:02:38.791Z,21.56
2022-08-23T06:03:38.805Z,21.65
2022-08-23T06:04:38.829Z,21.62
2022-08-23T06:05:38.813Z,21.68
2022-08-23T06:06:38.810Z,21.67
2022-08-23T06:07:38.828Z,21.69
2022-08-23T06:08:38.862Z,21.68
2022-08-23T06:09:38.842Z,21.67
2022-08-23T06:10:42.214Z,21.69
2022-08-23T06:11:38.846Z,21.68
2022-08-23T06:12:38.851Z,21.79
2022-08-23T06:13:38.837Z,21.79
2022-08-23T06:14:38.851Z,21.80
2022-08-23T06:15:38.886Z,21.74
2022-08-23T06:16:38.871Z,21.83
2022-08-23T06:17:38.864Z,21.83
2022-08-23T06:18:38.868Z,21.84
2022-08-23T06:19:38.874Z,21.90
2022-08-23T06:20:38.936Z,21.82
2022-08-23T06:21:38.887Z,21.80
2022-08-23T06:22:38.887Z,21.80
2022-08-23T06:23:38.890Z,21.86
2022-08-23T06:24:38.899Z,21.80
2022-08-23T06:25:38.897Z,21.86
2022-08-23T06:26:38.913Z,21.92
2022-08-23T06:27:38.895Z,21.90
2022-08-23T06:28:50.162Z,21.90
2022-08-23T06:29:38.903Z,21.91
2022-08-23T06:30:39.828Z,21.98
2022-08-23T06:31:38.957Z,21.94
2022-08-23T06:32:38.959Z,21.91
2022-08-23T06:33:38.935Z,21.88
2022-08-23T06:34:38.940Z,21.94
2022-08-23T06:35:40.084Z,22.00
2022-08-23T06:36:38.959Z,22.03
2022-08-23T06:37:38.986Z,22.00
2022-08-23T06:38:38.964Z,22.05
2022-08-23T06:39:38.959Z,22.07
2022-08-23T06:40:38.970Z,22.05
2022-08-23T06:41:38.961Z,22.03
2022-08-23T06:42:39.105Z,22.18
2022-08-23T06:43:39.001Z,22.17
2022-08-23T06:44:38.984Z,22.14
2022-08-23T06:45:38.977Z,22.17
2022-08-23T06:46:39.045Z,22.18
2022-08-23T06:47:39.056Z,22.24
2022-08-23T06:48:39.005Z,22.28
2022-08-23T06:49:39.008Z,22.24
2022-08-23T06:50:39.018Z,22.25
2022-08-23T06:51:39.020Z,22.25
2022-08-23T06:52:39.023Z,22.28
2022-08-23T06:53:39.020Z,22.35
2022-08-23T06:54:39.038Z,22.28
2022-08-23T06:55:39.061Z,22.37
2022-08-23T06:56:39.027Z,22.31
2022-08-23T06:57:39.063Z,22.37
2022-08-23T06:58:39.035Z,22.33
2022-08-23T06:59:39.050Z,22.40
2022-08-23T07:00:39.074Z,22.45
2022-08-23T07:01:45.677Z,22.46
2022-08-23T07:02:39.147Z,22.49
2022-08-23T07:03:39.094Z,22.49
2022-08-23T07:04:39.073Z,22.46
2022-08-23T07:05:39.120Z,22.45
2022-08-23T07:06:39.081Z,22.47
2022-08-23T07:07:41.423Z,22.58
2022-08-23T07:08:39.116Z,22.54
2022-08-23T07:09:39.107Z,22.60
2022-08-23T07:10:39.103Z,22.61
2022-08-23T07:11:39.114Z,22.51
2022-08-23T07:12:39.131Z,22.52
2022-08-23T07:13:39.110Z,22.57
2022-08-23T07:14:39.120Z,22.60
2022-08-23T07:15:39.134Z,22.54
2022-08-23T07:16:39.204Z,22.61
2022-08-23T07:17:39.154Z,22.62
2022-08-23T07:18:39.145Z,22.62
2022-08-23T07:19:39.210Z,22.62
2022-08-23T07:20:39.155Z,22.68
2022-08-23T07:21:39.164Z,22.62
2022-08-23T07:22:39.165Z,22.76
2022-08-23T07:23:39.170Z,22.76
2022-08-23T07:24:39.162Z,22.76
2022-08-23T07:25:39.200Z,22.75
2022-08-23T07:26:39.185Z,22.75
2022-08-23T07:27:39.576Z,22.67
2022-08-23T07:28:39.196Z,22.79
2022-08-23T07:29:39.224Z,22.82
2022-08-23T07:30:43.245Z,22.80
2022-08-23T07:31:39.253Z,22.88
2022-08-23T07:32:39.209Z,22.83
2022-08-23T07:33:39.215Z,22.92
2022-08-23T07:34:39.232Z,22.92
2022-08-23T07:35:40.409Z,22.92
2022-08-23T07:36:39.225Z,22.95
2022-08-23T07:37:39.235Z,22.95
2022-08-23T07:38:39.706Z,22.98
2022-08-23T07:39:39.265Z,22.98
2022-08-23T07:40:40.727Z,23.01
2022-08-23T07:41:39.253Z,23.04
2022-08-23T07:42:39.265Z,23.09
2022-08-23T07:45:45.494Z,23.04
2022-08-23T07:46:12.564Z,23.12
2022-08-23T07:48:53.952Z,23.05
2022-08-23T07:49:43.422Z,23.19
2022-08-23T07:50:56.023Z,23.23
2022-08-23T07:51:43.429Z,23.23
2022-08-23T07:52:43.433Z,23.20
2022-08-23T07:53:46.077Z,23.25
2022-08-23T07:54:43.517Z,23.31
2022-08-23T07:55:43.460Z,23.38
2022-08-23T07:56:43.460Z,23.28
2022-08-23T07:57:43.456Z,23.46
2022-08-23T07:58:43.458Z,23.32
2022-08-23T07:59:43.475Z,23.40
2022-08-23T08:00:43.479Z,23.33
2022-08-23T08:01:43.587Z,23.40
2022-08-23T08:02:43.537Z,23.43
2022-08-23T08:03:43.494Z,23.47
2022-08-23T08:04:43.520Z,23.54
2022-08-23T08:05:43.490Z,23.48
2022-08-23T08:06:43.492Z,23.46
2022-08-23T08:07:43.525Z,23.48
2022-08-23T08:08:43.509Z,23.48
2022-08-23T08:09:43.513Z,23.48
2022-08-23T08:10:43.526Z,23.48
2022-08-23T08:11:43.524Z,23.54
2022-08-23T08:12:43.559Z,23.51
2022-08-23T08:13:43.541Z,23.53
2022-08-23T08:14:43.538Z,23.54
2022-08-23T08:15:43.581Z,23.60
2022-08-23T08:16:43.556Z,23.60
2022-08-23T08:17:43.576Z,23.54
2022-08-23T08:18:43.592Z,23.57
2022-08-23T08:19:43.576Z,23.57
2022-08-23T08:20:43.596Z,23.61
2022-08-23T08:21:43.587Z,23.60
2022-08-23T08:22:47.550Z,23.61
2022-08-23T08:23:43.604Z,23.70
2022-08-23T08:24:43.610Z,23.72
2022-08-23T08:25:50.787Z,23.70
2022-08-23T08:26:43.626Z,23.76
2022-08-23T08:27:43.627Z,23.85
2022-08-23T08:28:43.620Z,23.75
2022-08-23T08:29:43.645Z,23.72
2022-08-23T08:30:43.710Z,23.83
2022-08-23T08:31:45.051Z,23.85
2022-08-23T08:32:47.250Z,23.88
2022-08-23T08:33:43.659Z,24.00
2022-08-23T08:34:44.119Z,23.98
2022-08-23T08:35:43.669Z,24.00
2022-08-23T08:36:43.737Z,24.02
2022-08-23T08:37:43.690Z,24.02
2022-08-23T08:38:47.911Z,24.16
2022-08-23T08:39:43.716Z,24.06
2022-08-23T08:40:43.794Z,24.13
2022-08-23T08:41:43.705Z,24.12
2022-08-23T08:42:44.570Z,24.25
2022-08-23T08:43:43.761Z,24.31
2022-08-23T08:44:43.722Z,24.37
2022-08-23T08:45:43.782Z,24.37
2022-08-23T08:46:43.803Z,24.32
2022-08-23T08:47:43.734Z,24.34
2022-08-23T08:48:43.750Z,24.35
2022-08-23T08:49:43.761Z,24.35
2022-08-23T08:50:44.548Z,24.45
2022-08-23T08:51:43.798Z,24.47
2022-08-23T08:52:43.850Z,24.50
2022-08-23T08:53:43.778Z,24.53
2022-08-23T08:54:47.860Z,24.52
2022-08-23T08:55:43.784Z,24.58
2022-08-23T08:56:43.808Z,24.62
2022-08-23T08:57:43.787Z,24.62
2022-08-23T08:58:43.800Z,24.64
2022-08-23T08:59:43.823Z,24.71
2022-08-23T09:00:43.812Z,24.71
2022-08-23T09:01:43.862Z,24.84
2022-08-23T09:02:43.862Z,24.73
2022-08-23T09:03:43.822Z,24.87
2022-08-23T09:04:43.835Z,24.88
2022-08-23T09:05:43.839Z,24.96
2022-08-23T09:06:43.853Z,24.91
2022-08-23T09:07:43.871Z,24.98
2022-08-23T09:08:43.860Z,25.09
2022-08-23T09:09:43.856Z,25.00
2022-08-23T09:10:43.892Z,25.08
2022-08-23T09:11:43.888Z,25.13
2022-08-23T09:12:43.886Z,25.15
2022-08-23T09:13:46.150Z,25.06
2022-08-23T09:14:43.887Z,25.03
2022-08-23T09:15:43.940Z,25.14
2022-08-23T09:16:43.919Z,25.03
2022-08-23T09:17:44.011Z,25.09
2022-08-23T09:18:43.916Z,25.20
2022-08-23T09:19:43.935Z,25.23
2022-08-23T09:20:43.971Z,25.21
2022-08-23T09:21:43.939Z,25.25
2022-08-23T09:22:43.954Z,25.25
2022-08-23T09:23:43.946Z,25.27
2022-08-23T09:24:43.983Z,25.21
2022-08-23T09:25:43.979Z,25.23
2022-08-23T09:26:43.975Z,25.33
2022-08-23T09:27:43.981Z,25.42
2022-08-23T09:28:43.993Z,25.38
2022-08-23T09:29:44.034Z,25.35
2022-08-23T09:30:44.013Z,25.33
2022-08-23T09:31:44.107Z,25.45
2022-08-23T09:32:44.008Z,25.45
2022-08-23T09:33:44.022Z,25.52
2022-08-23T09:34:44.017Z,25.54
2022-08-23T09:35:44.055Z,25.51
2022-08-23T09:36:44.036Z,25.55
2022-08-23T09:37:44.038Z,25.55
2022-08-23T09:38:44.039Z,25.61
2022-08-23T09:39:44.133Z,25.62
2022-08-23T09:40:44.064Z,25.62
2022-08-23T09:41:44.072Z,25.62
2022-08-23T09:42:44.070Z,25.60
2022-08-23T09:43:44.109Z,25.64
2022-08-23T09:44:44.084Z,25.65
2022-08-23T09:45:44.105Z,25.69
2022-08-23T09:46:44.199Z,25.73
2022-08-23T09:47:44.340Z,25.79
2022-08-23T09:48:44.140Z,25.80
2022-08-23T09:49:44.129Z,25.76
2022-08-23T09:50:44.135Z,25.85
2022-08-23T09:51:44.499Z,25.80
2022-08-23T09:52:44.144Z,25.77
2022-08-23T09:53:44.148Z,25.70
2022-08-23T09:54:47.605Z,25.67
2022-08-23T09:55:44.174Z,25.67
2022-08-23T09:56:44.198Z,25.69
2022-08-23T09:57:44.183Z,25.79
2022-08-23T09:58:44.188Z,25.83
2022-08-23T09:59:44.191Z,25.80
2022-08-23T10:00:44.201Z,25.92
2022-08-23T10:01:44.291Z,25.92
2022-08-23T10:02:44.217Z,25.92
2022-08-23T10:03:44.223Z,25.95
2022-08-23T10:04:44.268Z,26.05
2022-08-23T10:05:44.242Z,26.02
2022-08-23T10:06:44.246Z,26.10
2022-08-23T10:07:44.268Z,26.23
2022-08-23T10:08:44.250Z,26.32
2022-08-23T10:09:44.263Z,26.37
2022-08-23T10:10:44.271Z,26.47
2022-08-23T10:11:44.280Z,26.50
2022-08-23T10:12:44.276Z,26.45
2022-08-23T10:13:44.308Z,26.52
2022-08-23T10:14:44.311Z,26.48
2022-08-23T10:15:44.347Z,26.58
2022-08-23T10:16:44.297Z,26.58
2022-08-23T10:17:44.318Z,26.60
2022-08-23T10:18:44.343Z,26.76
2022-08-23T10:19:44.339Z,26.80
2022-08-23T10:20:44.342Z,26.75
2022-08-23T10:21:44.369Z,26.81
2022-08-23T10:22:44.381Z,26.69
2022-08-23T10:23:44.363Z,26.77
2022-08-23T10:24:44.360Z,26.88
2022-08-23T10:25:44.390Z,26.89
2022-08-23T10:26:44.393Z,26.89
2022-08-23T10:27:44.407Z,27.00
2022-08-23T10:28:44.401Z,26.97
2022-08-23T10:29:44.404Z,26.95
2022-08-23T10:30:44.508Z,27.07
2022-08-23T10:31:44.443Z,27.07
2022-08-23T10:32:44.435Z,27.17
2022-08-23T10:33:44.468Z,27.18
2022-08-23T10:34:49.794Z,27.09
2022-08-23T10:35:44.470Z,27.22
2022-08-23T10:36:44.470Z,27.24
2022-08-23T10:37:44.497Z,27.22
2022-08-23T10:38:44.476Z,27.31
2022-08-23T10:39:44.511Z,27.34
2022-08-23T10:40:44.495Z,27.29
2022-08-23T10:41:44.499Z,27.36
2022-08-23T10:42:44.543Z,27.34
2022-08-23T10:43:44.527Z,27.34
2022-08-23T10:44:44.520Z,27.36
2022-08-23T10:45:44.539Z,27.41
2022-08-23T10:46:44.583Z,27.44
2022-08-23T10:47:44.556Z,27.46
2022-08-23T10:48:44.584Z,27.39
2022-08-23T10:49:44.572Z,27.47
2022-08-23T10:50:44.586Z,27.47
2022-08-23T10:51:44.576Z,27.47
2022-08-23T10:52:44.580Z,27.40
2022-08-23T10:53:44.609Z,27.40
2022-08-23T10:54:44.616Z,27.43
2022-08-23T10:55:44.620Z,27.41
2022-08-23T10:56:48.647Z,27.41
2022-08-23T10:57:44.630Z,27.40
2022-08-23T10:58:44.636Z,27.40
2022-08-23T10:59:44.660Z,27.41
2022-08-23T11:00:44.647Z,27.46
2022-08-23T11:01:44.686Z,27.41
2022-08-23T11:02:44.758Z,27.40
2022-08-23T11:03:44.665Z,27.34
2022-08-23T11:04:44.716Z,27.41
2022-08-23T11:05:44.685Z,27.36
2022-08-23T11:06:44.693Z,27.31
2022-08-23T11:07:44.704Z,27.27
2022-08-23T11:08:47.657Z,27.32
2022-08-23T11:09:44.736Z,27.32
2022-08-23T11:10:53.698Z,27.31
2022-08-23T11:11:44.730Z,27.21
2022-08-23T11:12:44.752Z,27.25
2022-08-23T11:13:44.757Z,27.29
2022-08-23T11:14:44.756Z,27.32
2022-08-23T11:15:45.282Z,27.37
2022-08-23T11:16:44.769Z,27.40
2022-08-23T11:17:44.808Z,27.41
2022-08-23T11:18:44.802Z,27.47
2022-08-23T11:19:44.802Z,27.57
2022-08-23T11:20:44.834Z,27.67
2022-08-23T11:21:44.829Z,27.70
2022-08-23T11:22:44.814Z,27.79
2022-08-23T11:23:44.827Z,27.85
2022-08-23T11:24:44.829Z,27.90
2022-08-23T11:25:44.842Z,27.94
2022-08-23T11:26:44.875Z,27.92
2022-08-23T11:27:44.876Z,27.81
2022-08-23T11:28:44.882Z,27.85
2022-08-23T11:29:44.875Z,27.84
2022-08-23T11:30:44.929Z,27.81
2022-08-23T11:31:44.925Z,27.94
2022-08-23T11:32:44.893Z,27.90
2022-08-23T11:33:44.910Z,28.31
2022-08-23T11:34:44.918Z,28.51
2022-08-23T11:35:44.930Z,28.61
2022-08-23T11:36:44.945Z,28.52
2022-08-23T11:37:44.954Z,28.58
2022-08-23T11:38:44.948Z,28.73
2022-08-23T11:39:44.989Z,28.70
2022-08-23T11:40:44.971Z,28.81
2022-08-23T11:41:44.968Z,29.28
2022-08-23T11:42:44.991Z,29.52
2022-08-23T11:43:44.996Z,29.70
2022-08-23T11:44:44.996Z,29.34
2022-08-23T11:45:44.995Z,29.52
2022-08-23T11:46:45.019Z,29.85
2022-08-23T11:47:45.018Z,29.90
2022-08-23T11:48:45.032Z,29.97
2022-08-23T11:49:45.043Z,30.27
2022-08-23T11:50:45.050Z,30.23
2022-08-23T11:51:45.055Z,30.20
2022-08-23T11:52:45.066Z,29.97
2022-08-23T11:53:45.079Z,29.89
2022-08-23T11:54:45.074Z,29.89
2022-08-23T11:55:45.082Z,29.87
2022-08-23T11:56:46.408Z,30.01
2022-08-23T11:57:45.105Z,30.07
2022-08-23T11:58:45.115Z,30.49
2022-08-23T11:59:45.114Z,30.54
2022-08-23T12:00:45.154Z,30.76
2022-08-23T12:01:45.124Z,30.79
2022-08-23T12:02:45.305Z,30.61
2022-08-23T12:03:46.093Z,30.47
2022-08-23T12:04:45.163Z,30.43
2022-08-23T12:05:45.202Z,30.49
2022-08-23T12:06:50.566Z,30.47
2022-08-23T12:07:45.178Z,30.47
2022-08-23T12:08:45.185Z,30.57
2022-08-23T12:09:45.203Z,30.69
2022-08-23T12:10:45.226Z,30.57
2022-08-23T12:11:45.253Z,30.47
2022-08-23T12:12:47.273Z,30.45
2022-08-23T12:13:45.234Z,30.34
2022-08-23T12:14:45.270Z,30.20
2022-08-23T12:15:45.325Z,30.02
2022-08-23T12:16:49.814Z,29.95
2022-08-23T12:17:45.260Z,29.76
2022-08-23T12:18:47.617Z,29.57
2022-08-23T12:19:45.285Z,29.41
2022-08-23T12:20:48.574Z,29.30
2022-08-23T12:21:45.293Z,29.26
2022-08-23T12:22:45.330Z,29.21
2022-08-23T12:23:47.926Z,29.15
2022-08-23T12:24:46.886Z,29.18
2022-08-23T12:25:45.325Z,29.15
2022-08-23T12:26:45.354Z,29.09
2022-08-23T12:27:45.366Z,29.12
2022-08-23T12:28:45.370Z,28.92
2022-08-23T12:29:45.364Z,29.04
2022-08-23T12:30:45.416Z,28.98
2022-08-23T12:31:45.418Z,28.88
2022-08-23T12:32:45.400Z,28.88
2022-08-23T12:33:45.886Z,28.88
2022-08-23T12:34:45.427Z,28.85
2022-08-23T12:35:45.425Z,28.83
2022-08-23T12:36:45.432Z,28.77
2022-08-23T12:37:45.439Z,28.76
2022-08-23T12:38:45.454Z,28.73
2022-08-23T12:39:45.495Z,28.88
2022-08-23T12:40:45.467Z,28.76
2022-08-23T12:41:45.469Z,28.86
2022-08-23T12:42:45.479Z,28.81
2022-08-23T12:43:45.484Z,28.70
2022-08-23T12:44:45.490Z,28.66
2022-08-23T12:45:45.501Z,28.76
2022-08-23T12:46:45.568Z,28.77
2022-08-23T12:47:45.528Z,28.85
2022-08-23T12:48:45.541Z,28.90
2022-08-23T12:49:45.524Z,28.93
2022-08-23T12:50:45.534Z,29.00
2022-08-23T12:51:45.546Z,29.05
2022-08-23T12:52:45.567Z,29.04
2022-08-23T12:53:45.875Z,28.95
2022-08-23T12:54:45.567Z,29.02
2022-08-23T12:55:45.582Z,29.09
2022-08-23T12:56:45.596Z,29.04
2022-08-23T12:57:45.599Z,29.04